Time;durP1;ratioP1;P1;durP2;ratioP2;P2;SDS_P1;SDS_P2;PMS_P1;PMS_P2;Temp;Humidity;BMP_temperature;BMP_pressure;BME280_temperature;BME280_humidity;BME280_pressure;Samples;Min_cycle;Max_cycle;Signal;HPM_P1;HPM_P2
2020/12/26 00:01:56;;;;;;;9.53;1.57;;;;;;;0.93;82.18;100556.69;120175;1148;22958;-59
2020/12/26 00:04:27;;;;;;;7.47;1.30;;;;;;;0.92;82.66;100555.11;120158;1148;23028;-61
2020/12/26 00:06:57;;;;;;;7.50;1.35;;;;;;;0.93;82.18;100562.19;120211;1148;22921;-62
2020/12/26 00:09:26;;;;;;;9.77;1.77;;;;;;;0.94;81.75;100557.44;120081;1148;22933;-62
2020/12/26 00:11:55;;;;;;;5.97;1.40;;;;;;;0.94;82.10;100557.44;120143;1148;22917;-59
2020/12/26 00:14:27;;;;;;;7.20;1.30;;;;;;;0.94;82.38;100552.73;120336;1148;24553;-59
2020/12/26 00:16:57;;;;;;;7.77;1.40;;;;;;;0.95;82.54;100559.02;120377;1147;23122;-59
2020/12/26 00:19:28;;;;;;;7.03;1.30;;;;;;;0.95;81.76;100561.77;120351;1148;22928;-60
2020/12/26 00:21:56;;;;;;;;;;;;;;;0.96;82.47;100557.81;120430;1147;22911;-61
2020/12/26 00:24:25;;;;;;;7.37;1.40;;;;;;;0.94;82.52;100555.48;120384;1148;21609;-59
2020/12/26 00:26:57;;;;;;;9.13;1.53;;;;;;;0.95;82.51;100561.77;120229;1148;22917;-60
2020/12/26 00:29:27;;;;;;;7.43;1.10;;;;;;;0.93;82.51;100553.94;120189;1148;22995;-60
2020/12/26 00:31:56;;;;;;;5.57;1.10;;;;;;;0.93;82.24;100564.14;120194;1148;27549;-60
2020/12/26 00:34:26;;;;;;;8.70;1.60;;;;;;;0.92;82.33;100557.07;120166;1148;22913;-59
2020/12/26 00:36:55;;;;;;;6.77;1.17;;;;;;;0.91;82.22;100559.03;120263;1148;22913;-59
2020/12/26 00:39:24;;;;;;;9.63;1.27;;;;;;;0.92;82.27;100551.57;120088;1148;22916;-59
2020/12/26 00:41:53;;;;;;;7.23;1.20;;;;;;;0.92;82.03;100562.56;120283;1147;22942;-60
2020/12/26 00:44:22;;;;;;;4.60;1.17;;;;;;;0.93;82.05;100564.93;120098;1148;27220;-60
2020/12/26 00:46:51;;;;;;;7.67;1.17;;;;;;;0.92;81.88;100565.31;120037;1148;22924;-62
2020/12/26 00:49:20;;;;;;;8.77;1.10;;;;;;;0.92;82.06;100568.06;120214;1148;27887;-62
2020/12/26 00:51:50;;;;;;;5.77;1.30;;;;;;;0.91;82.03;100561.78;120070;1148;22948;-60
2020/12/26 00:54:19;;;;;;;5.25;1.00;;;;;;;0.89;81.88;100569.65;120153;1148;23028;-59
2020/12/26 00:56:48;;;;;;;7.27;0.93;;;;;;;0.88;81.95;100559.86;120056;1148;27222;-61
2020/12/26 00:59:17;;;;;;;5.47;0.93;;;;;;;0.88;81.44;100564.56;120423;1147;23378;-59
2020/12/26 01:01:46;;;;;;;5.03;1.00;;;;;;;0.89;82.28;100566.90;120131;1148;22923;-61
2020/12/26 01:04:16;;;;;;;4.60;0.90;;;;;;;0.88;81.58;100559.86;120168;1148;27401;-62
2020/12/26 01:06:45;;;;;;;6.30;1.00;;;;;;;0.87;81.65;100566.52;120315;1147;25009;-59
2020/12/26 01:09:14;;;;;;;5.80;1.00;;;;;;;0.87;82.38;100561.03;120201;1148;22916;-57
2020/12/26 01:11:43;;;;;;;5.83;1.20;;;;;;;0.87;82.13;100568.52;120282;1148;22941;-60
2020/12/26 01:14:13;;;;;;;4.87;0.90;;;;;;;0.87;81.76;100563.78;120310;1148;22913;-62
2020/12/26 01:16:42;;;;;;;5.10;1.00;;;;;;;0.89;81.79;100577.14;120017;1148;22942;-57
2020/12/26 01:19:12;;;;;;;5.33;1.00;;;;;;;0.88;81.94;100575.56;120311;1147;23878;-59
2020/12/26 01:21:41;;;;;;;8.70;1.40;;;;;;;0.87;82.32;100572.02;120066;1148;22908;-60
2020/12/26 01:24:10;;;;;;;4.83;0.97;;;;;;;0.87;82.33;100572.02;120254;1148;22920;-60
2020/12/26 01:26:39;;;;;;;7.77;1.03;;;;;;;0.88;82.35;100579.09;120098;1148;27245;-61
2020/12/26 01:29:08;;;;;;;6.63;1.10;;;;;;;0.88;81.88;100581.84;120416;1147;23624;-60
2020/12/26 01:31:38;;;;;;;6.63;0.90;;;;;;;0.89;82.40;100582.63;120158;1148;23001;-61
2020/12/26 01:34:07;;;;;;;5.53;0.78;;;;;;;0.89;81.55;100579.88;120157;1148;23105;-59
2020/12/26 01:36:36;;;;;;;5.40;0.90;;;;;;;0.89;81.96;100577.89;120039;1148;22999;-58
2020/12/26 01:39:05;;;;;;;5.53;0.87;;;;;;;0.90;82.38;100584.97;120528;1147;22955;-59
2020/12/26 01:41:34;;;;;;;4.33;0.90;;;;;;;0.91;82.34;100588.51;120268;1148;23876;-59
2020/12/26 01:44:04;;;;;;;5.13;0.80;;;;;;;0.90;82.05;100584.97;120256;1148;22927;-59
2020/12/26 01:46:34;;;;;;;6.07;1.00;;;;;;;0.90;81.71;100587.72;120068;1148;25998;-60
2020/12/26 01:49:04;;;;;;;6.83;0.80;;;;;;;0.89;81.62;100582.63;120311;1148;22915;-59
2020/12/26 01:51:33;;;;;;;7.57;1.03;;;;;;;0.88;82.18;100581.06;120156;1148;26094;-58
2020/12/26 01:54:03;;;;;;;4.95;1.20;;;;;;;0.89;82.18;100588.89;120111;1148;22928;-59
2020/12/26 01:56:33;;;;;;;6.50;0.90;;;;;;;0.90;81.86;100595.17;120242;1148;22948;-60
2020/12/26 01:59:04;;;;;;;4.62;0.70;;;;;;;0.90;82.30;100598.71;120309;1148;22942;-60
2020/12/26 02:01:34;;;;;;;7.87;1.03;;;;;;;0.91;81.96;100591.25;120253;1148;23071;-58
2020/12/26 02:04:02;;;;;;;;;;;;;;;0.91;82.55;100589.27;120263;1148;22913;-60
2020/12/26 02:06:36;;;;;;;6.40;1.03;;;;;;;0.93;82.55;100588.88;120094;1148;21560;-61
2020/12/26 02:09:06;;;;;;;9.13;1.00;;;;;;;0.93;82.32;100586.13;120186;1148;22987;-60
2020/12/26 02:11:34;;;;;;;;;;;;;;;0.92;82.17;100584.56;120149;1148;22930;-60
2020/12/26 02:14:03;;;;;;;5.37;1.17;;;;;;;0.91;82.50;100581.02;120098;1148;21626;-62
2020/12/26 02:16:43;;;;;;;6.40;1.30;;;;;;;0.91;82.02;100577.52;120041;1148;22972;-58
2020/12/26 02:19:13;;;;;;;6.70;1.30;;;;;;;0.91;81.87;100580.26;120159;1148;27328;-60
2020/12/26 02:21:42;;;;;;;8.70;1.20;;;;;;;0.90;82.08;100586.93;120123;1147;23186;-60
2020/12/26 02:24:12;;;;;;;5.90;1.27;;;;;;;0.91;82.25;100589.27;120077;1148;22970;-59
2020/12/26 02:26:41;;;;;;;5.40;1.20;;;;;;;0.92;82.58;100588.09;120040;1148;22915;-60
2020/12/26 02:29:10;;;;;;;4.30;0.90;;;;;;;0.92;82.58;100587.30;120053;1148;26097;-59
2020/12/26 02:31:40;;;;;;;6.33;1.12;;;;;;;0.93;82.09;100578.67;120156;1148;22938;-61
2020/12/26 02:34:09;;;;;;;7.40;1.07;;;;;;;0.95;82.21;100572.77;120164;1147;23373;-59
2020/12/26 02:36:39;;;;;;;6.47;1.07;;;;;;;0.97;82.29;100575.89;120096;1148;23006;-60
2020/12/26 02:39:09;;;;;;;4.15;1.00;;;;;;;0.98;82.36;100580.97;120079;1147;22872;-60
2020/12/26 02:41:38;;;;;;;4.60;1.00;;;;;;;0.99;82.12;100582.55;120327;1148;22989;-59
2020/12/26 02:44:07;;;;;;;5.50;1.17;;;;;;;1.00;82.26;100583.31;120050;1148;22942;-60
2020/12/26 02:46:36;;;;;;;7.97;1.40;;;;;;;1.00;82.33;100584.09;120161;1148;25967;-61
2020/12/26 02:49:06;;;;;;;8.77;1.60;;;;;;;1.02;82.60;100589.97;120237;1148;23015;-60
2020/12/26 02:51:35;;;;;;;6.53;1.10;;;;;;;1.03;81.90;100596.25;120455;1147;22971;-59
2020/12/26 02:54:04;;;;;;;6.78;1.15;;;;;;;1.03;82.08;100593.50;120079;1147;22939;-61
2020/12/26 02:56:34;;;;;;;7.20;1.30;;;;;;;1.03;82.06;100597.05;120263;1148;22991;-60
2020/12/26 02:59:02;;;;;;;9.17;1.97;;;;;;;1.03;82.10;100599.80;120161;1148;26085;-60
2020/12/26 03:01:31;;;;;;;7.40;1.40;;;;;;;1.04;82.17;100601.34;120308;1148;22999;-60
2020/12/26 03:04:01;;;;;;;7.97;1.40;;;;;;;1.03;82.48;100607.25;120181;1148;23024;-62
2020/12/26 03:06:30;;;;;;;10.70;1.55;;;;;;;1.06;82.64;100595.42;120051;1148;22920;-60
2020/12/26 03:08:59;;;;;;;6.40;1.30;;;;;;;1.05;82.66;100597.42;120405;1150;22941;-60
2020/12/26 03:11:29;;;;;;;5.40;1.20;;;;;;;1.06;82.49;100592.67;120382;1148;22966;-61
2020/12/26 03:13:58;;;;;;;11.08;2.22;;;;;;;1.08;82.12;100595.80;120140;1148;22923;-61
2020/12/26 03:16:27;;;;;;;8.25;1.25;;;;;;;1.06;82.58;100596.22;120060;1148;22998;-60
2020/12/26 03:18:56;;;;;;;7.13;1.63;;;;;;;1.06;82.12;100598.97;120189;1148;22980;-59
2020/12/26 03:21:25;;;;;;;10.10;1.40;;;;;;;1.06;82.40;100596.22;120316;1148;23058;-60
2020/12/26 03:23:54;;;;;;;13.75;1.60;;;;;;;1.07;82.71;100591.50;120041;1148;24691;-59
2020/12/26 03:26:23;;;;;;;7.77;1.43;;;;;;;1.10;82.69;100596.17;120026;1148;22911;-60
2020/12/26 03:28:52;;;;;;;9.27;1.40;;;;;;;1.11;82.48;100595.00;120178;1148;22955;-59
2020/12/26 03:31:22;;;;;;;5.97;1.27;;;;;;;1.12;82.03;100593.83;120233;1148;24888;-60
2020/12/26 03:33:51;;;;;;;9.80;1.60;;;;;;;1.11;82.54;100584.79;120172;1148;22948;-60
2020/12/26 03:36:20;;;;;;;10.27;2.30;;;;;;;1.14;82.35;100600.46;120103;1148;23438;-59
2020/12/26 03:38:49;;;;;;;8.75;1.80;;;;;;;1.14;82.43;100596.95;120037;1148;24591;-60
2020/12/26 03:41:18;;;;;;;10.70;1.80;;;;;;;1.13;82.65;100598.91;120095;1148;22958;-59
2020/12/26 03:43:47;;;;;;;7.40;1.63;;;;;;;1.13;82.67;100593.41;120168;1148;22995;-60
2020/12/26 03:46:16;;;;;;;7.37;1.77;;;;;;;1.14;82.34;100594.96;120080;1148;24596;-59
2020/12/26 03:48:46;;;;;;;6.73;1.43;;;;;;;1.15;82.65;100604.00;120033;1148;27127;-62
2020/12/26 03:51:15;;;;;;;8.80;1.60;;;;;;;1.15;82.58;100604.00;120129;1148;22905;-60
2020/12/26 03:53:44;;;;;;;7.30;1.60;;;;;;;1.15;82.24;100604.78;120212;1148;22944;-60
2020/12/26 03:56:18;;;;;;;7.15;1.45;;;;;;;1.14;82.22;100597.71;120221;1148;22941;-61
2020/12/26 03:58:47;;;;;;;7.43;1.13;;;;;;;1.14;82.48;100608.71;120100;1148;22927;-59
2020/12/26 04:01:16;;;;;;;6.87;1.60;;;;;;;1.14;82.02;100603.21;120229;1147;22902;-60
2020/12/26 04:03:45;;;;;;;7.80;1.40;;;;;;;1.16;82.59;100611.84;120320;1148;23030;-60
2020/12/26 04:06:15;;;;;;;10.83;1.60;;;;;;;1.16;82.20;100611.08;120045;1147;22889;-60
2020/12/26 04:08:44;;;;;;;6.80;1.55;;;;;;;1.16;82.30;100611.08;120275;1148;23323;-59
2020/12/26 04:11:13;;;;;;;10.53;1.67;;;;;;;1.14;82.57;100619.70;120047;1148;23077;-61
2020/12/26 04:13:42;;;;;;;7.80;1.80;;;;;;;1.14;82.46;100619.70;120316;1148;22963;-60
2020/12/26 04:16:12;;;;;;;7.27;1.57;;;;;;;1.14;82.37;100619.70;120243;1147;23067;-60
2020/12/26 04:18:41;;;;;;;8.20;1.50;;;;;;;1.14;82.30;100627.95;120327;1147;27029;-61
2020/12/26 04:21:10;;;;;;;7.35;1.27;;;;;;;1.13;82.03;100626.41;120363;1147;27411;-62
2020/12/26 04:23:39;;;;;;;7.30;1.50;;;;;;;1.12;82.25;100621.33;120169;1148;22872;-62
2020/12/26 04:26:11;;;;;;;6.03;1.23;;;;;;;1.13;82.00;100625.62;120055;1148;22996;-60
2020/12/26 04:28:40;;;;;;;8.63;1.40;;;;;;;1.11;81.96;100620.54;120355;1147;22966;-59
2020/12/26 04:31:09;;;;;;;9.37;2.03;;;;;;;1.12;82.60;100624.08;120257;1147;27832;-58
2020/12/26 04:33:38;;;;;;;8.63;1.40;;;;;;;1.11;81.95;100615.04;120266;1148;24547;-59
2020/12/26 04:36:08;;;;;;;7.87;1.63;;;;;;;1.10;81.94;100632.70;120266;1147;22913;-60
2020/12/26 04:38:37;;;;;;;11.80;1.80;;;;;;;1.09;82.02;100620.16;120345;1147;22892;-60
2020/12/26 04:41:06;;;;;;;7.50;1.70;;;;;;;1.07;82.35;100628.03;120272;1148;22917;-59
2020/12/26 04:43:35;;;;;;;8.50;1.15;;;;;;;1.07;81.80;100622.54;120350;1148;25931;-59
2020/12/26 04:46:12;;;;;;;6.87;1.40;;;;;;;1.06;82.52;100633.92;120296;1148;23506;-59
2020/12/26 04:48:50;;;;;;;8.70;1.30;;;;;;;1.06;82.24;100622.92;120238;1148;22971;-59
2020/12/26 04:51:20;;;;;;;10.20;1.30;;;;;;;1.05;82.17;100630.41;120323;1148;22919;-60
2020/12/26 04:53:52;;;;;;;6.10;1.27;;;;;;;1.04;82.27;100622.55;120448;1147;24545;-60
2020/12/26 04:56:22;;;;;;;6.43;1.20;;;;;;;1.04;82.31;100628.05;120167;1147;22917;-60
2020/12/26 04:58:52;;;;;;;7.12;1.37;;;;;;;1.03;81.99;100629.25;120338;1148;22976;-59
2020/12/26 05:01:23;;;;;;;6.55;1.12;;;;;;;1.03;81.76;100630.03;120334;1147;22938;-59
2020/12/26 05:03:55;;;;;;;7.30;1.30;;;;;;;1.03;82.32;100630.03;120045;1148;22976;-59
2020/12/26 05:06:30;;;;;;;4.40;0.75;;;;;;;1.03;81.73;100638.28;120205;1148;22938;-60
2020/12/26 05:09:00;;;;;;;5.83;1.10;;;;;;;1.04;82.06;100639.04;120112;1148;22970;-60
2020/12/26 05:11:29;;;;;;;7.28;1.30;;;;;;;1.04;81.48;100644.54;120607;1147;26049;-59
2020/12/26 05:13:58;;;;;;;6.25;1.00;;;;;;;1.02;81.81;100644.16;120055;1148;26707;-61
2020/12/26 05:16:28;;;;;;;6.55;1.10;;;;;;;1.02;81.63;100650.45;120264;1147;22992;-59
2020/12/26 05:18:57;;;;;;;4.37;1.00;;;;;;;1.03;81.16;100643.78;120201;1148;26402;-59
2020/12/26 05:21:28;;;;;;;7.87;1.10;;;;;;;1.04;81.60;100641.79;120109;1148;22949;-58
2020/12/26 05:24:07;;;;;;;4.70;1.00;;;;;;;1.04;80.99;100648.08;120070;1148;23009;-59
2020/12/26 05:26:42;;;;;;;4.70;0.80;;;;;;;1.04;80.56;100650.03;120250;1147;24411;-60
2020/12/26 05:29:13;;;;;;;7.10;1.30;;;;;;;1.04;80.70;100650.83;120561;1147;28499;-58
2020/12/26 05:31:45;;;;;;;10.57;2.33;;;;;;;1.03;80.60;100649.28;120153;1148;22958;-61
2020/12/26 05:34:16;;;;;;;12.55;1.20;;;;;;;1.05;80.72;100648.87;120336;1147;22916;-59
2020/12/26 05:36:45;;;;;;;7.30;1.03;;;;;;;1.06;80.43;100642.95;120290;1147;22965;-61
2020/12/26 05:39:14;;;;;;;5.73;1.03;;;;;;;1.06;79.46;100650.41;120277;1147;26401;-62
2020/12/26 05:41:45;;;;;;;7.10;0.80;;;;;;;1.06;80.37;100648.45;120383;1148;22949;-62
2020/12/26 05:44:13;;;;;;;;;;;;;;;1.08;79.94;100651.58;120314;1148;24731;-60
2020/12/26 05:46:57;;;;;;;6.60;0.90;;;;;;;1.05;79.57;100652.41;120262;1147;21973;-58
2020/12/26 05:49:28;;;;;;;8.13;0.90;;;;;;;1.05;79.75;100651.61;120122;1148;22919;-61
2020/12/26 05:52:08;;;;;;;6.65;1.00;;;;;;;1.05;79.74;100655.16;120445;1147;22941;-60
2020/12/26 05:54:38;;;;;;;6.00;1.20;;;;;;;1.05;78.80;100659.86;120369;1148;23031;-62
2020/12/26 05:57:09;;;;;;;5.40;0.90;;;;;;;1.04;79.72;100666.53;120072;1148;22919;-59
2020/12/26 05:59:38;;;;;;;4.83;0.80;;;;;;;1.02;78.99;100663.41;120101;1148;22938;-59
2020/12/26 06:02:26;;;;;;;9.05;1.17;;;;;;;1.03;78.79;100665.77;120177;1148;26384;-58
2020/12/26 06:04:58;;;;;;;5.20;0.90;;;;;;;1.02;78.69;100668.91;120066;1148;22938;-62
2020/12/26 06:07:29;;;;;;;5.03;0.70;;;;;;;1.03;79.21;100673.23;120264;1148;26856;-60
2020/12/26 06:10:00;;;;;;;6.93;1.30;;;;;;;1.03;79.19;100673.23;120359;1147;22921;-60
2020/12/26 06:12:29;;;;;;;5.83;1.03;;;;;;;1.02;79.47;100674.41;120519;1147;22928;-59
2020/12/26 06:14:59;;;;;;;8.83;1.35;;;;;;;1.01;78.86;100683.85;120334;1148;22942;-59
2020/12/26 06:17:31;;;;;;;8.60;1.17;;;;;;;1.00;78.74;100683.06;120411;1148;22999;-60
2020/12/26 06:20:03;;;;;;;9.03;1.20;;;;;;;0.99;79.05;100687.02;120332;1148;22938;-60
2020/12/26 06:22:46;;;;;;;7.93;1.80;;;;;;;0.99;78.83;100689.77;120380;1148;23032;-60
2020/12/26 06:25:17;;;;;;;6.87;1.03;;;;;;;0.99;78.58;100692.52;120472;1147;22924;-61
2020/12/26 06:28:02;;;;;;;5.60;1.00;;;;;;;0.99;78.89;100697.22;120364;1147;22991;-60
2020/12/26 06:30:33;;;;;;;4.60;0.90;;;;;;;0.99;79.07;100699.97;120250;1148;22920;-59
2020/12/26 06:33:02;;;;;;;7.30;1.10;;;;;;;0.98;79.21;100696.44;120280;1148;22945;-57
2020/12/26 06:35:32;;;;;;;9.67;0.90;;;;;;;0.99;78.70;100702.72;120179;1148;22917;-59
2020/12/26 06:38:18;;;;;;;4.40;1.00;;;;;;;0.99;78.82;100702.72;120258;1147;23026;-60
2020/12/26 06:40:59;;;;;;;9.63;0.87;;;;;;;0.96;78.26;100698.80;120277;1147;23070;-59
2020/12/26 06:43:41;;;;;;;;;;;;;;;0.96;78.99;100698.02;120241;1147;27089;-61
2020/12/26 06:46:30;;;;;;;7.93;0.90;;;;;;;0.96;79.07;100709.01;120039;1148;21620;-58
2020/12/26 06:49:01;;;;;;;7.20;1.10;;;;;;;0.95;78.94;100713.75;120055;1148;22969;-60
2020/12/26 06:51:30;;;;;;;;;;;;;;;0.94;78.65;100717.66;120175;1148;24608;-60
2020/12/26 06:54:01;;;;;;;5.77;0.97;;;;;;;0.93;78.28;100718.86;120288;1148;21624;-58
2020/12/26 06:56:49;;;;;;;10.73;1.00;;;;;;;0.93;79.13;100721.61;120306;1148;22938;-59
2020/12/26 06:59:31;;;;;;;10.67;0.80;;;;;;;0.93;79.04;100727.11;120287;1147;22883;-60
2020/12/26 07:02:07;;;;;;;6.20;0.98;;;;;;;0.93;78.75;100731.82;120288;1148;22992;-60
2020/12/26 07:04:41;;;;;;;3.63;0.77;;;;;;;0.92;78.58;100738.48;120220;1147;22948;-61
2020/12/26 07:07:13;;;;;;;9.40;1.03;;;;;;;0.92;78.85;100741.23;120232;1148;22947;-60
2020/12/26 07:09:47;;;;;;;5.70;0.90;;;;;;;0.91;78.92;100742.44;120202;1148;23186;-59
2020/12/26 07:12:16;;;;;;;5.20;0.90;;;;;;;0.90;78.57;100741.64;120395;1147;22924;-59
2020/12/26 07:14:51;;;;;;;7.13;1.07;;;;;;;0.89;77.82;100751.06;120251;1148;22942;-59
2020/12/26 07:17:27;;;;;;;6.10;1.00;;;;;;;0.89;78.28;100758.55;120404;1148;27441;-61
2020/12/26 07:19:59;;;;;;;6.43;1.00;;;;;;;0.89;77.87;100764.05;120318;1148;26646;-62
2020/12/26 07:22:30;;;;;;;4.83;0.83;;;;;;;0.88;77.90;100767.97;120043;1148;22910;-59
2020/12/26 07:25:05;;;;;;;5.90;0.93;;;;;;;0.87;77.89;100766.41;120244;1148;23051;-61
2020/12/26 07:27:37;;;;;;;9.10;1.07;;;;;;;0.88;78.42;100777.00;120048;1148;22948;-58
2020/12/26 07:30:11;;;;;;;9.77;1.30;;;;;;;0.89;78.38;100764.80;120266;1148;27672;-58
2020/12/26 07:32:54;;;;;;;7.93;1.10;;;;;;;0.88;78.23;100771.50;120414;1147;23048;-60
2020/12/26 07:35:40;;;;;;;5.07;0.60;;;;;;;0.88;77.29;100774.25;120307;1148;26353;-61
2020/12/26 07:38:12;;;;;;;5.05;0.70;;;;;;;0.89;77.58;100772.29;120325;1147;22935;-62
2020/12/26 07:40:43;;;;;;;5.83;0.60;;;;;;;0.90;77.41;100774.63;120292;1147;27357;-59
2020/12/26 07:43:14;;;;;;;2.33;0.50;;;;;;;0.91;77.09;100780.92;120327;1147;22942;-57
2020/12/26 07:45:43;;;;;;;;;;;;;;;0.89;77.10;100780.54;120349;1148;22930;-61
2020/12/26 07:48:13;;;;;;;28.87;7.40;;;;;;;0.87;76.75;100782.91;120092;1147;21566;-61
2020/12/26 07:50:43;;;;;;;10.35;1.40;;;;;;;0.87;76.59;100789.16;120190;1147;24737;-58
2020/12/26 07:53:13;;;;;;;7.33;1.00;;;;;;;0.88;77.49;100789.95;120100;1148;22928;-59
2020/12/26 07:55:42;;;;;;;5.37;0.80;;;;;;;0.87;76.89;100786.41;120367;1147;22943;-62
2020/12/26 07:58:13;;;;;;;7.83;0.70;;;;;;;0.87;77.47;100794.66;120518;1147;24572;-60
2020/12/26 08:00:44;;;;;;;6.03;0.70;;;;;;;0.87;76.88;100791.91;120112;1148;23051;-60
2020/12/26 08:03:14;;;;;;;4.30;0.60;;;;;;;0.88;77.20;100798.98;120234;1148;22920;-58
2020/12/26 08:05:48;;;;;;;3.00;0.60;;;;;;;0.88;76.60;100795.45;120092;1148;22923;-58
2020/12/26 08:08:20;;;;;;;6.20;0.60;;;;;;;0.89;76.89;100791.53;120081;1147;22908;-59
2020/12/26 08:10:57;;;;;;;6.83;0.70;;;;;;;0.89;76.60;100794.28;120456;1147;22930;-60
2020/12/26 08:13:26;;;;;;;5.55;0.70;;;;;;;0.89;76.50;100808.02;120096;1147;24739;-60
2020/12/26 08:16:03;;;;;;;6.70;0.60;;;;;;;0.88;75.86;100801.73;120349;1147;23025;-60
2020/12/26 08:18:33;;;;;;;6.43;0.70;;;;;;;0.89;76.88;100802.53;120206;1147;22951;-59
2020/12/26 08:21:03;;;;;;;6.72;0.93;;;;;;;0.89;76.47;100817.03;120367;1147;27188;-60
2020/12/26 08:23:32;;;;;;;4.30;0.50;;;;;;;0.90;76.02;100804.08;120085;1148;22916;-62
2020/12/26 08:26:02;;;;;;;8.10;0.75;;;;;;;0.90;75.78;100804.08;120073;1148;22945;-60
2020/12/26 08:28:32;;;;;;;6.80;0.67;;;;;;;0.90;76.15;100809.58;120046;1148;22955;-60
2020/12/26 08:31:05;;;;;;;6.23;1.00;;;;;;;0.91;76.51;100813.91;120467;1148;23000;-59
2020/12/26 08:33:40;;;;;;;4.35;0.60;;;;;;;0.92;76.01;100816.25;120226;1148;23007;-59
2020/12/26 08:36:16;;;;;;;5.37;0.70;;;;;;;0.94;75.94;100815.84;120183;1148;22916;-60
2020/12/26 08:38:51;;;;;;;3.53;0.70;;;;;;;0.95;76.43;100818.20;120185;1148;22923;-62
2020/12/26 08:41:21;;;;;;;5.13;0.63;;;;;;;0.95;75.91;100817.42;120018;1148;22934;-59
2020/12/26 08:43:51;;;;;;;5.95;0.50;;;;;;;0.96;75.85;100824.47;120310;1147;22920;-61
2020/12/26 08:46:23;;;;;;;6.80;0.70;;;;;;;0.96;76.27;100821.72;120278;1148;23044;-60
2020/12/26 08:48:53;;;;;;;4.40;0.60;;;;;;;0.97;75.85;100826.05;120352;1147;23853;-60
2020/12/26 08:51:24;;;;;;;3.87;0.70;;;;;;;0.98;75.88;100827.59;120424;1147;22939;-61
2020/12/26 08:53:56;;;;;;;7.60;1.07;;;;;;;1.00;76.26;100836.23;120345;1148;22919;-59
2020/12/26 08:56:35;;;;;;;7.65;0.60;;;;;;;1.00;75.68;100833.48;120385;1147;22920;-59
2020/12/26 08:59:06;;;;;;;4.42;0.70;;;;;;;1.00;76.18;100834.27;120322;1148;22912;-61
2020/12/26 09:01:36;;;;;;;5.37;0.50;;;;;;;1.01;75.25;100841.34;120383;1148;22932;-60
2020/12/26 09:04:14;;;;;;;4.23;0.77;;;;;;;1.01;74.96;100838.60;120379;1147;22935;-60
2020/12/26 09:06:43;;;;;;;6.37;0.70;;;;;;;1.02;75.00;100842.11;120363;1147;22992;-59
2020/12/26 09:09:18;;;;;;;2.45;0.50;;;;;;;1.02;74.77;100837.41;120342;1147;23005;-60
2020/12/26 09:11:59;;;;;;;5.17;0.50;;;;;;;1.03;74.96;100840.94;120311;1148;26424;-59
2020/12/26 09:14:28;;;;;;;5.83;0.63;;;;;;;1.03;75.42;100844.48;120277;1148;22938;-59
2020/12/26 09:16:59;;;;;;;5.90;0.60;;;;;;;1.03;74.59;100847.23;120077;1148;22916;-61
2020/12/26 09:19:42;;;;;;;3.80;0.60;;;;;;;1.05;75.20;100847.61;120138;1148;24594;-58
2020/12/26 09:22:12;;;;;;;5.17;0.67;;;;;;;1.06;75.31;100846.42;120429;1147;22917;-60
2020/12/26 09:24:43;;;;;;;4.10;0.50;;;;;;;1.07;74.49;100836.20;120443;1147;27819;-60
2020/12/26 09:27:19;;;;;;;6.93;0.63;;;;;;;1.08;75.24;100843.26;120285;1147;26072;-59
2020/12/26 09:29:54;;;;;;;8.17;0.80;;;;;;;1.07;74.75;100850.75;120317;1148;22913;-60
2020/12/26 09:32:23;;;;;;;4.27;0.50;;;;;;;1.11;75.36;100850.72;120285;1148;22952;-60
2020/12/26 09:34:52;;;;;;;6.67;0.60;;;;;;;1.12;75.56;100849.55;120255;1147;22935;-60
2020/12/26 09:37:21;;;;;;;6.17;0.70;;;;;;;1.12;75.34;100855.81;120452;1147;26069;-60
2020/12/26 09:39:51;;;;;;;8.90;0.97;;;;;;;1.12;75.06;100855.05;120194;1147;26021;-59
2020/12/26 09:42:26;;;;;;;8.43;0.70;;;;;;;1.13;74.30;100857.39;120316;1148;22913;-60
2020/12/26 09:44:57;;;;;;;8.37;0.93;;;;;;;1.15;75.11;100859.73;120131;1148;28988;-60
2020/12/26 09:47:27;;;;;;;7.85;0.90;;;;;;;1.15;74.79;100849.52;120424;1147;22924;-61
2020/12/26 09:49:57;;;;;;;4.15;0.60;;;;;;;1.16;74.62;100853.83;120375;1147;27791;-61
2020/12/26 09:52:26;;;;;;;10.85;0.70;;;;;;;1.19;74.93;100852.25;120416;1148;23328;-60
2020/12/26 09:54:55;;;;;;;6.53;0.63;;;;;;;1.19;74.09;100855.79;120313;1148;26382;-61
2020/12/26 09:57:24;;;;;;;5.93;0.60;;;;;;;1.20;74.44;100851.84;120160;1147;30169;-58
2020/12/26 09:59:53;;;;;;;4.40;0.77;;;;;;;1.21;74.63;100847.92;120439;1147;27397;-58
2020/12/26 10:02:23;;;;;;;8.40;0.80;;;;;;;1.24;74.45;100846.34;120312;1148;23051;-62
2020/12/26 10:04:52;;;;;;;7.55;0.80;;;;;;;1.24;74.04;100847.10;120383;1147;22942;-60
2020/12/26 10:07:21;;;;;;;3.20;0.53;;;;;;;1.25;74.39;100851.44;120166;1148;22952;-59
2020/12/26 10:09:51;;;;;;;3.77;0.60;;;;;;;1.27;74.57;100842.77;120302;1148;22938;-59
2020/12/26 10:12:20;;;;;;;5.10;0.80;;;;;;;1.27;74.15;100846.31;120181;1148;24046;-61
2020/12/26 10:14:49;;;;;;;7.83;1.10;;;;;;;1.29;74.29;100840.41;120323;1147;26069;-59
2020/12/26 10:17:19;;;;;;;6.70;1.00;;;;;;;1.31;74.51;100838.03;120176;1148;22938;-60
2020/12/26 10:19:49;;;;;;;10.13;0.90;;;;;;;1.33;74.02;100841.16;120243;1148;22913;-60
2020/12/26 10:22:18;;;;;;;7.17;0.95;;;;;;;1.34;73.51;100838.03;120111;1148;22916;-60
2020/12/26 10:24:50;;;;;;;6.35;0.90;;;;;;;1.36;73.98;100832.91;120077;1148;23083;-60
2020/12/26 10:27:19;;;;;;;4.23;1.00;;;;;;;1.39;74.19;100843.09;120477;1147;22870;-59
2020/12/26 10:29:48;;;;;;;5.90;0.90;;;;;;;1.40;73.56;100844.67;120068;1148;23032;-59
2020/12/26 10:32:17;;;;;;;7.03;0.77;;;;;;;1.41;73.58;100845.44;120139;1148;27813;-61
2020/12/26 10:34:47;;;;;;;5.73;0.90;;;;;;;1.43;74.13;100845.81;120285;1148;22944;-58
2020/12/26 10:37:16;;;;;;;5.15;0.80;;;;;;;1.45;73.83;100843.45;120272;1148;24593;-61
2020/12/26 10:39:46;;;;;;;5.50;0.70;;;;;;;1.45;73.83;100844.23;120349;1148;25967;-59
2020/12/26 10:42:15;;;;;;;5.70;1.00;;;;;;;1.47;74.07;100847.36;120438;1148;22913;-59
2020/12/26 10:44:44;;;;;;;6.17;0.68;;;;;;;1.49;73.64;100844.23;120175;1147;22914;-60
2020/12/26 10:47:14;;;;;;;6.95;1.00;;;;;;;1.51;73.92;100847.36;120076;1148;22971;-59
2020/12/26 10:49:44;;;;;;;6.80;0.80;;;;;;;1.52;73.58;100852.45;120037;1148;22919;-59
2020/12/26 10:52:13;;;;;;;4.75;0.80;;;;;;;1.55;73.40;100850.87;120177;1147;27249;-59
2020/12/26 10:54:43;;;;;;;9.23;0.70;;;;;;;1.55;73.29;100845.38;120387;1148;22942;-59
2020/12/26 10:57:13;;;;;;;7.35;0.85;;;;;;;1.57;73.84;100843.00;120468;1147;22913;-61
2020/12/26 10:59:42;;;;;;;5.83;0.80;;;;;;;1.59;73.69;100835.12;120251;1148;22931;-60
2020/12/26 11:02:12;;;;;;;5.23;0.70;;;;;;;1.61;73.66;100825.25;120279;1147;22927;-58
2020/12/26 11:04:41;;;;;;;6.62;0.95;;;;;;;1.63;73.27;100833.88;120211;1148;22913;-59
2020/12/26 11:07:10;;;;;;;7.05;1.00;;;;;;;1.65;73.27;100833.50;120018;1148;22938;-58
2020/12/26 11:09:39;;;;;;;6.73;0.80;;;;;;;1.68;73.63;100831.92;120106;1148;22940;-59
2020/12/26 11:12:10;;;;;;;7.13;1.00;;;;;;;1.69;72.99;100839.77;120110;1148;22917;-59
2020/12/26 11:14:40;;;;;;;10.00;1.03;;;;;;;1.71;72.84;100845.64;120319;1148;23006;-60
2020/12/26 11:17:09;;;;;;;8.97;1.00;;;;;;;1.73;73.29;100835.02;120264;1148;23313;-57
2020/12/26 11:19:39;;;;;;;8.15;1.40;;;;;;;1.75;72.78;100849.16;120348;1148;26378;-59
2020/12/26 11:22:08;;;;;;;7.10;1.10;;;;;;;1.77;73.13;100844.02;120161;1148;24697;-60
2020/12/26 11:24:39;;;;;;;5.97;1.02;;;;;;;1.80;73.44;100843.20;120178;1148;22920;-61
2020/12/26 11:27:10;;;;;;;6.70;1.10;;;;;;;1.82;73.30;100843.58;120062;1148;22944;-59
2020/12/26 11:29:40;;;;;;;6.93;1.00;;;;;;;1.83;71.94;100849.88;120143;1147;22945;-59
2020/12/26 11:32:09;;;;;;;6.58;1.00;;;;;;;1.81;72.52;100842.03;120145;1147;22958;-59
2020/12/26 11:34:40;;;;;;;11.90;1.30;;;;;;;1.81;72.43;100850.28;120079;1148;22914;-58
2020/12/26 11:37:11;;;;;;;7.23;1.30;;;;;;;1.82;72.37;100851.84;120089;1148;22950;-62
2020/12/26 11:39:40;;;;;;;6.03;1.10;;;;;;;1.83;72.48;100849.88;120230;1148;22952;-60
2020/12/26 11:42:11;;;;;;;7.30;1.40;;;;;;;1.84;72.49;100848.70;120071;1148;26072;-59
2020/12/26 11:44:41;;;;;;;8.73;1.10;;;;;;;1.87;72.72;100851.41;120428;1147;22968;-60